»·PEaware :: N413C KCRQ-KLAX

N413C :: KCRQ-KLAX

FLIGHT INFORMATION

Flight Status: Arrived
Operator: Privately registered:
United States
More flights under this callsign
Pilot: Alec D. (17934)
Aircraft: PIPER PA-23-235/250 AZTEC
(PA27)
More flights by this aircraft type
Origin: KCRQ McClellan-Palomar
United States
Destination: KLAX Los Angeles Intl
United States
More flights between these airports :: More routes between these airports
Route: OCN V23 SLI
File this flight plan on PilotEdge
Remarks:
Altitude:
(Current/Filed)
6,000ft
Speed:
(Current/Filed)
175kts
Departed: 16-Jul-18 07:16 PM
Arrived: 16-Jul-18 07:50 PM
Distance/Time
Traveled:
74nm/0:34
Distance/Time
To Go:
Arrived

Flight Plot

Page will automatically refresh every two minutes.


Map Options




Map Legend


Flown Route
Filed Route
Departure Airport
Arrival Airport
Navaid (VOR, NDB)
Fix

Horizontal Profiles

Position Reports

Time Latitude Longitude Heading Altitude Ground
Speed
16-Jul-18 18:55 33.126648 -117.277711 254 334ft 0kts
16-Jul-18 18:56 33.126648 -117.277711 254 334ft 0kts
16-Jul-18 18:57 33.126648 -117.277711 254 334ft 0kts
16-Jul-18 18:58 33.126648 -117.277711 254 334ft 0kts
16-Jul-18 18:59 33.126648 -117.277711 254 334ft 0kts
16-Jul-18 19:00 33.126647 -117.277714 254 334ft 0kts
16-Jul-18 19:01 33.126646 -117.277717 254 334ft 0kts
16-Jul-18 19:02 33.126646 -117.277721 255 334ft 0kts
16-Jul-18 19:03 33.126645 -117.277724 255 334ft 0kts
16-Jul-18 19:04 33.126644 -117.277728 255 334ft 0kts
16-Jul-18 19:05 33.126643 -117.277732 255 334ft 0kts
16-Jul-18 19:06 33.126642 -117.277735 255 334ft 0kts
16-Jul-18 19:07 33.126642 -117.277739 255 334ft 0kts
16-Jul-18 19:08 33.126642 -117.277799 286 334ft 2kts
16-Jul-18 19:09 33.127700 -117.277075 78 334ft 16kts
16-Jul-18 19:10 33.128533 -117.271948 316 334ft 0kts
16-Jul-18 19:11 33.128537 -117.271953 316 334ft 0kts
16-Jul-18 19:12 33.128541 -117.271958 316 334ft 0kts
16-Jul-18 19:13 33.128545 -117.271962 316 334ft 0kts
16-Jul-18 19:14 33.128547 -117.271964 316 334ft 0kts
16-Jul-18 19:15 33.128701 -117.272184 308 334ft 5kts
16-Jul-18 19:16 33.129407 -117.272937 259 334ft 9kts
16-Jul-18 19:17 33.126781 -117.298136 264 923ft 106kts
16-Jul-18 19:18 33.124903 -117.335469 264 1864ft 121kts
16-Jul-18 19:19 33.134655 -117.370463 334 2686ft 129kts
16-Jul-18 19:20 33.168334 -117.385974 335 3532ft 129kts
16-Jul-18 19:21 33.201938 -117.401622 338 4347ft 129kts
16-Jul-18 19:22 33.235733 -117.417111 337 5107ft 133kts
16-Jul-18 19:23 33.263080 -117.446407 315 5892ft 135kts
16-Jul-18 19:24 33.292996 -117.481132 314 6008ft 162kts
16-Jul-18 19:25 33.325962 -117.519530 314 6004ft 169kts
16-Jul-18 19:26 33.359902 -117.559139 315 6010ft 170kts
16-Jul-18 19:27 33.394149 -117.598552 313 6007ft 171kts
16-Jul-18 19:28 33.428265 -117.638154 318 6003ft 171kts
16-Jul-18 19:29 33.462159 -117.678127 313 5997ft 171kts
16-Jul-18 19:30 33.495754 -117.718435 313 5993ft 171kts
16-Jul-18 19:31 33.529173 -117.759147 314 5989ft 171kts
16-Jul-18 19:32 33.563013 -117.799067 314 5986ft 171kts
16-Jul-18 19:33 33.596900 -117.838908 314 5984ft 170kts
16-Jul-18 19:34 33.630866 -117.878921 314 5982ft 170kts
16-Jul-18 19:35 33.665135 -117.918303 316 5983ft 170kts
16-Jul-18 19:36 33.699298 -117.957815 314 5980ft 170kts
16-Jul-18 19:37 33.733207 -117.997912 314 5974ft 170kts
16-Jul-18 19:38 33.766971 -118.037863 314 5972ft 170kts
16-Jul-18 19:39 33.808765 -118.060193 351 5980ft 171kts
16-Jul-18 19:40 33.856628 -118.065748 352 5642ft 175kts
16-Jul-18 19:41 33.904441 -118.080857 340 4802ft 178kts
16-Jul-18 19:42 33.950390 -118.100496 319 3847ft 172kts
16-Jul-18 19:43 33.961647 -118.147916 269 3674ft 130kts
16-Jul-18 19:44 33.959088 -118.186186 260 3476ft 106kts
16-Jul-18 19:45 33.953965 -118.222354 260 2816ft 107kts
16-Jul-18 19:46 33.950144 -118.257327 262 2009ft 99kts
16-Jul-18 19:47 33.947232 -118.287507 263 1652ft 88kts
16-Jul-18 19:48 33.944274 -118.317421 263 1249ft 90kts
16-Jul-18 19:49 33.941204 -118.346238 262 803ft 81kts
16-Jul-18 19:50 33.938601 -118.373062 261 331ft 76kts
16-Jul-18 19:51 33.936614 -118.392375 262 129ft 20kts
16-Jul-18 19:52 33.935683 -118.393682 178 129ft 0kts
16-Jul-18 19:53 33.934833 -118.395593 263 129ft 14kts
16-Jul-18 19:54 33.933512 -118.397588 83 129ft 0kts
16-Jul-18 19:55 33.933513 -118.397586 83 129ft 0kts
16-Jul-18 19:56 33.933513 -118.397586 83 129ft 0kts

Navigation Log

Ident Type
Flight plan parsing failed, navigation log unavailable